Blytheville, AR (72316)

12:04 PM CDT on September 22, 2014 (GMT -0500)
Arkansas International | Change Station
CLOSE
Current Station
Airport
Location: Blytheville,
Elevation: 256 ft
Nearby Weather Stations

Elev 256 ft 35.96 °N, 89.94 °W | Updated 13 minutes ago

Partly Cloudy
Partly Cloudy
70 °F
Feels Like 70 °F
N
8
Wind Variable Wind from NE

Today
High -- | Low -- °F
--% Chance of Precip.
Yesterday
High -- | Low -- °F
Precip. -- in
6:47 AM 6:56 PM
Waning Crescent, 2% visible
Pressure 30.24 in
Visibility 10.0 miles
Clouds Few 5000 ft
Dew Point 52 °F
Humidity 53%
Rainfall 0.00 in
Snow Depth Not available.
UV 7 out of 12
Pollen 7.90 out of 12
Air Quality Not available.
Flu Activity Not available.
METAR KBYH 221651Z 05007KT 10SM FEW050 21/11 A3024

More Conditions Fewer Conditions

Pressure 30.24 in
Visibility 10.0 miles
Clouds Few 5000 ft
Dew Point 52 °F
Humidity 53%
Rainfall 0.00 in
Snow Depth Not available.
UV 7 out of 12
Pollen 7.90 out of 12
Air Quality Not available.
Flu Activity Not available.
METAR KBYH 221651Z 05007KT 10SM FEW050 21/11 A3024

More Conditions Fewer Conditions

10-Day Weather Forecast

Almanac

Astronomy

Sep. 22, 2014 Rise Set
Actual Time 6:47 AM CDT 6:56 PM CDT
Civil Twilight 6:22 AM CDT 7:22 PM CDT
Nautical Twilight 5:52 AM CDT 7:51 PM CDT
Astronomical Twilight 5:21 AM CDT 8:22 PM CDT
Moon 5:18 AM CDT 6:03 PM CDT
Length of Visible Light 12h 59m
Length of Day
12h 08m
Tomorrow will be 2m 15s shorter.
Waning Crescent, 2% of the Moon is Illuminated
Today
Waning Crescent
Sep 24
New
Oct 1
First Quarter
Oct 8
Full
Oct 15
Last Quarter

Today's Extremes

State Highs State Lows

Community

WunderPhotos

Upload Photos

1,755,487 photos uploaded!

WunderBlogs® & News

Nearby

Snow Depth

Station Depth Elevation
No new snow has been reported.

Earthquake Activity

City Distance Mag. Time & Date
No recent earthquake activity has been reported nearby.
Minimum magnitude displayed is 2.5.

Coastal Water Temperatures

Place Temperature
No Stations Reporting

Nearby Weather Stations